Time;durP1;ratioP1;P1;durP2;ratioP2;P2;SDS_P1;SDS_P2;PMS_P1;PMS_P2;Temp;Humidity;BMP_temperature;BMP_pressure;BME280_temperature;BME280_humidity;BME280_pressure;Samples;Min_cycle;Max_cycle;Signal;HPM_P1;HPM_P2
2022/06/17 00:01:54;;;;;;;6.07;4.97;;;;;;;13.43;82.24;102418.91;5034142;28;20206;-73
2022/06/17 00:04:20;;;;;;;7.47;5.40;;;;;;;13.28;82.84;102420.97;5044231;28;20253;-73
2022/06/17 00:06:52;;;;;;;9.17;5.60;;;;;;;13.26;83.27;102431.22;5036452;28;20236;-73
2022/06/17 00:09:21;;;;;;;8.07;5.33;;;;;;;13.19;83.19;102429.25;5051197;28;20194;-73
2022/06/17 00:11:46;;;;;;;8.30;5.43;;;;;;;13.06;83.41;102426.19;5047470;28;20572;-73
2022/06/17 00:14:16;;;;;;;6.50;5.23;;;;;;;13.03;83.14;102439.81;5035159;28;20214;-73
2022/06/17 00:16:42;;;;;;;7.53;5.07;;;;;;;13.05;82.97;102445.91;5050996;28;20788;-73
2022/06/17 00:19:07;;;;;;;7.27;5.47;;;;;;;12.94;82.30;102436.91;5035023;28;20192;-73
2022/06/17 00:21:36;;;;;;;8.37;5.33;;;;;;;12.98;82.17;102440.50;5038343;28;20206;-73
2022/06/17 00:24:17;;;;;;;5.90;5.23;;;;;;;12.90;82.23;102430.78;5047014;28;20679;-73
2022/06/17 00:26:43;;;;;;;9.03;6.30;;;;;;;12.82;82.75;102423.63;5021926;28;20190;-73
2022/06/17 00:29:17;;;;;;;10.97;6.43;;;;;;;12.82;84.05;102423.63;5031387;28;20178;-73
2022/06/17 00:31:43;;;;;;;9.27;7.37;;;;;;;12.84;83.91;102415.16;5018977;28;20375;-73
2022/06/17 00:34:09;;;;;;;10.00;6.90;;;;;;;12.69;84.22;102424.91;5034242;28;20763;-73
2022/06/17 00:36:35;;;;;;;11.30;7.20;;;;;;;12.75;83.38;102421.66;5037608;28;20197;-73
2022/06/17 00:39:01;;;;;;;9.63;7.50;;;;;;;12.58;84.05;102430.47;5025062;28;20648;-73
2022/06/17 00:41:35;;;;;;;10.97;7.90;;;;;;;12.63;83.84;102422.09;5040996;28;20206;-73
2022/06/17 00:44:16;;;;;;;7.53;6.33;;;;;;;12.48;83.67;102431.81;5048074;28;20178;-73
2022/06/17 00:46:48;;;;;;;8.13;6.47;;;;;;;12.48;83.93;102436.06;5034084;28;20278;-73
2022/06/17 00:49:32;;;;;;;9.77;6.57;;;;;;;12.50;84.44;102435.28;5040104;28;20182;-73
2022/06/17 00:52:08;;;;;;;8.97;6.10;;;;;;;12.38;84.27;102437.44;5017908;28;20229;-73
2022/06/17 00:54:41;;;;;;;8.10;6.33;;;;;;;12.32;83.90;102432.06;5016382;28;20285;-73
2022/06/17 00:57:25;;;;;;;10.47;7.17;;;;;;;12.26;84.47;102438.66;5013264;28;20895;-73
2022/06/17 01:00:20;;;;;;;9.33;6.63;;;;;;;12.22;84.57;102440.22;5030369;28;20210;-73
2022/06/17 01:02:53;;;;;;;8.90;6.17;;;;;;;12.24;84.47;102441.16;5012966;28;20244;-73
2022/06/17 01:05:24;;;;;;;7.60;6.90;;;;;;;12.15;84.42;102433.09;5029556;28;20151;-73
2022/06/17 01:08:01;;;;;;;9.57;7.07;;;;;;;12.13;84.92;102428.72;5012918;28;20193;-73
2022/06/17 01:10:28;;;;;;;8.97;7.43;;;;;;;12.15;85.38;102432.22;5012639;28;20643;-73
2022/06/17 01:12:59;;;;;;;8.40;6.70;;;;;;;12.11;85.63;102438.06;4996207;28;20190;-73
2022/06/17 01:15:28;;;;;;;8.70;7.00;;;;;;;12.04;84.88;102436.97;5013147;28;20182;-73
2022/06/17 01:17:57;;;;;;;8.53;7.23;;;;;;;12.03;84.64;102431.78;4992911;28;20676;-73
2022/06/17 01:20:26;;;;;;;7.63;6.73;;;;;;;11.96;84.56;102435.78;4992874;28;20207;-73
2022/06/17 01:22:54;;;;;;;8.90;6.53;;;;;;;11.97;85.06;102437.53;5005063;28;20193;-73
2022/06/17 01:25:28;;;;;;;9.93;7.53;;;;;;;11.90;84.87;102443.22;5012154;28;20187;-73
2022/06/17 01:28:00;;;;;;;9.93;6.63;;;;;;;11.84;84.65;102448.13;5012288;28;20644;-73
2022/06/17 01:30:36;;;;;;;8.13;6.80;;;;;;;11.74;84.51;102456.28;5012456;28;20210;-73
2022/06/17 01:33:11;;;;;;;7.70;6.90;;;;;;;11.80;84.92;102453.09;5011711;28;20424;-73
2022/06/17 01:35:45;;;;;;;10.13;7.23;;;;;;;11.73;85.56;102461.34;5012323;28;20174;-73
2022/06/17 01:38:12;;;;;;;10.10;7.23;;;;;;;11.76;85.76;102466.59;5012190;28;20574;-73
2022/06/17 01:40:37;;;;;;;8.97;7.13;;;;;;;11.75;85.01;102464.84;5011819;28;20777;-73
2022/06/17 01:43:08;;;;;;;9.63;7.07;;;;;;;11.67;84.80;102459.41;4996024;28;20186;-73
2022/06/17 01:45:38;;;;;;;7.33;6.37;;;;;;;11.61;85.07;102458.28;4992312;28;20182;-73
2022/06/17 01:48:04;;;;;;;11.40;7.40;;;;;;;11.61;85.36;102459.16;5012244;28;20210;-73
2022/06/17 01:50:31;;;;;;;9.80;7.07;;;;;;;11.59;85.98;102458.22;5029372;28;20210;-73
2022/06/17 01:53:05;;;;;;;8.67;7.43;;;;;;;11.55;86.46;102453.75;5012192;28;20201;-73
2022/06/17 01:55:49;;;;;;;8.63;7.03;;;;;;;11.54;85.75;102467.38;5029437;28;20174;-73
2022/06/17 01:58:23;;;;;;;9.20;7.20;;;;;;;11.44;86.21;102466.94;5016698;28;20197;-73
2022/06/17 02:00:49;;;;;;;8.43;6.73;;;;;;;11.41;86.73;102483.06;5011398;28;20206;-73
2022/06/17 02:03:22;;;;;;;8.63;7.57;;;;;;;11.34;86.59;102481.03;5012225;28;20194;-73
2022/06/17 02:05:53;;;;;;;9.53;7.30;;;;;;;11.34;86.25;102481.03;5011838;28;20183;-73
2022/06/17 02:08:18;;;;;;;9.47;7.50;;;;;;;11.35;86.65;102479.38;5011342;28;20228;-73
2022/06/17 02:10:46;;;;;;;10.50;8.03;;;;;;;11.37;86.37;102473.50;5011895;28;20236;-73
2022/06/17 02:13:14;;;;;;;8.80;7.47;;;;;;;11.36;86.24;102473.41;5011187;28;20253;-73
2022/06/17 02:16:05;;;;;;;9.43;7.53;;;;;;;11.29;86.40;102481.69;5018721;28;20194;-73
2022/06/17 02:18:53;;;;;;;8.27;7.37;;;;;;;11.21;85.88;102473.66;5028515;28;20245;-73
2022/06/17 02:21:25;;;;;;;8.43;7.30;;;;;;;11.14;85.96;102481.88;5011079;28;20214;-73
2022/06/17 02:23:52;;;;;;;10.70;8.47;;;;;;;11.12;86.78;102480.06;5011437;28;20190;-73
2022/06/17 02:26:19;;;;;;;10.33;8.63;;;;;;;11.09;86.93;102485.06;4994769;28;20210;-73
2022/06/17 02:28:47;;;;;;;8.63;7.73;;;;;;;11.08;86.85;102484.19;4994416;28;20186;-73
2022/06/17 02:31:16;;;;;;;11.50;8.43;;;;;;;11.03;86.96;102488.25;5014621;28;20214;-73
2022/06/17 02:33:44;;;;;;;9.87;7.90;;;;;;;10.96;86.37;102488.78;5009873;28;20214;-73
2022/06/17 02:36:19;;;;;;;9.33;7.83;;;;;;;10.94;86.38;102490.41;5020882;28;20186;-73
2022/06/17 02:38:45;;;;;;;12.10;8.57;;;;;;;10.88;86.23;102495.25;4975797;28;20182;-73
2022/06/17 02:41:19;;;;;;;11.07;8.50;;;;;;;10.82;87.41;102489.84;5009099;28;20321;-73
2022/06/17 02:44:00;;;;;;;10.10;8.77;;;;;;;10.85;87.59;102484.88;5011508;28;20186;-73
2022/06/17 02:46:30;;;;;;;11.10;9.13;;;;;;;10.86;87.81;102490.84;5011151;28;20198;-73
2022/06/17 02:49:04;;;;;;;11.10;9.53;;;;;;;10.81;88.25;102479.53;5011390;28;20191;-73
2022/06/17 02:51:33;;;;;;;10.97;8.53;;;;;;;10.80;87.86;102478.66;5010714;28;20256;-73
2022/06/17 02:54:02;;;;;;;9.63;8.30;;;;;;;10.83;87.55;102477.94;5011510;28;20217;-73
2022/06/17 02:56:31;;;;;;;9.37;8.43;;;;;;;10.73;87.87;102471.50;5010817;28;20189;-73
2022/06/17 02:59:13;;;;;;;10.07;8.23;;;;;;;10.72;88.16;102469.75;5011215;28;20273;-73
2022/06/17 03:01:44;;;;;;;11.20;8.97;;;;;;;10.73;88.22;102471.50;5011253;28;20634;-73
2022/06/17 03:04:28;;;;;;;10.20;9.20;;;;;;;10.66;88.58;102471.16;5011058;28;20727;-73
2022/06/17 03:06:54;;;;;;;10.20;8.97;;;;;;;10.67;88.45;102471.25;5011401;28;20198;-73
2022/06/17 03:09:20;;;;;;;10.37;9.07;;;;;;;10.61;88.56;102465.84;4994740;28;20674;-73
2022/06/17 03:11:53;;;;;;;10.13;8.67;;;;;;;10.63;87.74;102464.22;5011312;28;20214;-73
2022/06/17 03:14:20;;;;;;;9.93;8.93;;;;;;;10.59;88.09;102471.69;5010971;28;20218;-73
2022/06/17 03:16:50;;;;;;;11.87;9.57;;;;;;;10.71;88.03;102462.88;5029224;28;20174;-73
2022/06/17 03:19:16;;;;;;;11.87;10.20;;;;;;;10.74;89.07;102467.28;5010680;28;20270;-73
2022/06/17 03:21:42;;;;;;;13.17;10.10;;;;;;;10.73;89.03;102458.69;5011418;28;20213;-73
2022/06/17 03:24:22;;;;;;;14.67;10.83;;;;;;;10.72;88.48;102456.94;5011359;28;20174;-73
2022/06/17 03:27:31;;;;;;;11.80;10.43;;;;;;;10.71;88.34;102465.44;5011160;28;20675;-73
2022/06/17 03:30:00;;;;;;;12.03;10.10;;;;;;;10.71;88.27;102462.00;4976022;28;20201;-73
2022/06/17 03:32:33;;;;;;;12.73;9.73;;;;;;;10.72;87.87;102464.63;5014428;28;20683;-73
2022/06/17 03:34:58;;;;;;;16.33;11.27;;;;;;;10.71;88.73;102474.81;5014671;28;20219;-73
2022/06/17 03:37:48;;;;;;;11.90;10.00;;;;;;;10.72;88.29;102472.31;5013987;28;20281;-73
2022/06/17 03:40:30;;;;;;;11.63;10.37;;;;;;;10.68;88.21;102466.97;4998388;28;20221;-73
2022/06/17 03:43:16;;;;;;;13.67;10.33;;;;;;;10.69;88.50;102461.06;5014187;28;20186;-73
2022/06/17 03:46:00;;;;;;;12.57;9.80;;;;;;;10.73;88.49;102471.50;5036993;28;20185;-73
2022/06/17 03:48:33;;;;;;;13.40;10.40;;;;;;;10.79;88.35;102476.91;5013471;28;20723;-73
2022/06/17 03:51:00;;;;;;;11.87;10.60;;;;;;;10.85;88.54;102476.28;5014560;28;20214;-73
2022/06/17 03:53:28;;;;;;;13.83;10.07;;;;;;;10.85;88.54;102474.63;5013798;28;20289;-73
2022/06/17 03:56:05;;;;;;;12.13;10.63;;;;;;;10.91;88.35;102472.31;5014156;28;20198;-73
2022/06/17 03:58:36;;;;;;;16.37;11.10;;;;;;;11.01;88.28;102478.75;5013812;28;20187;-73
2022/06/17 04:01:34;;;;;;;14.30;10.77;;;;;;;11.03;88.63;102474.53;5014200;28;20216;-73
2022/06/17 04:04:22;;;;;;;11.83;9.87;;;;;;;11.14;87.90;102484.47;5013824;28;20182;-73
2022/06/17 04:06:52;;;;;;;10.73;9.60;;;;;;;11.17;87.46;102469.22;5014325;28;20259;-74
2022/06/17 04:09:29;;;;;;;10.43;9.27;;;;;;;11.25;87.49;102470.41;5013056;28;20891;-73
2022/06/17 04:12:00;;;;;;;11.07;9.80;;;;;;;11.40;87.34;102475.31;5013893;28;20249;-73
2022/06/17 04:14:50;;;;;;;12.80;9.73;;;;;;;11.51;87.35;102472.38;5013737;28;20207;-73
2022/06/17 04:17:39;;;;;;;9.50;8.13;;;;;;;11.64;87.03;102464.41;5013744;28;20186;-73
2022/06/17 04:20:24;;;;;;;11.70;8.77;;;;;;;11.72;86.59;102460.47;5013480;28;20210;-73
2022/06/17 04:22:54;;;;;;;11.07;9.23;;;;;;;11.83;86.22;102472.03;5013851;28;20198;-73
2022/06/17 04:26:08;;;;;;;11.00;8.83;;;;;;;11.93;86.02;102465.59;5007468;28;20222;-73
2022/06/17 04:29:06;;;;;;;10.60;8.97;;;;;;;12.01;86.06;102471.88;5013587;28;20285;-73
2022/06/17 04:31:33;;;;;;;10.33;8.90;;;;;;;12.11;85.48;102471.44;5012712;28;20210;-73
2022/06/17 04:34:08;;;;;;;9.57;8.60;;;;;;;12.21;85.78;102463.28;5013496;28;20230;-73
2022/06/17 04:36:45;;;;;;;9.07;8.13;;;;;;;12.29;85.56;102457.63;5013588;28;20245;-73
2022/06/17 04:39:13;;;;;;;12.30;8.80;;;;;;;12.34;85.56;102462.91;5013216;28;20186;-73
2022/06/17 04:42:11;;;;;;;11.70;8.67;;;;;;;12.38;85.35;102459.66;5012511;28;20280;-73
2022/06/17 04:44:39;;;;;;;12.50;9.83;;;;;;;12.51;85.53;102455.06;5013000;28;20621;-73
2022/06/17 04:47:09;;;;;;;12.40;9.43;;;;;;;12.63;85.44;102463.19;5031122;28;20193;-73
2022/06/17 04:49:52;;;;;;;11.00;8.47;;;;;;;12.69;85.45;102458.31;5012757;28;20186;-73
2022/06/17 04:52:28;;;;;;;10.63;8.67;;;;;;;12.86;84.67;102453.78;5013418;28;20866;-73
2022/06/17 04:55:04;;;;;;;12.67;8.93;;;;;;;13.05;85.04;102452.75;5012730;28;20709;-73
2022/06/17 04:57:48;;;;;;;10.00;8.50;;;;;;;13.19;84.35;102449.84;4998740;28;20827;-73
2022/06/17 05:00:18;;;;;;;11.53;8.50;;;;;;;13.33;84.19;102450.31;5012801;28;20383;-73
2022/06/17 05:02:45;;;;;;;9.57;8.47;;;;;;;13.48;83.34;102454.28;5013064;28;20191;-73
2022/06/17 05:05:38;;;;;;;12.87;9.00;;;;;;;13.67;83.30;102454.06;5030959;28;20165;-73
2022/06/17 05:08:13;;;;;;;12.83;8.43;;;;;;;13.79;82.21;102457.03;5013286;28;20174;-73
2022/06/17 05:10:48;;;;;;;11.30;8.30;;;;;;;13.88;82.46;102459.00;5012629;28;20292;-73
2022/06/17 05:13:43;;;;;;;11.27;7.10;;;;;;;14.01;80.20;102469.78;5030846;28;20171;-73
2022/06/17 05:16:12;;;;;;;8.93;7.47;;;;;;;14.09;78.07;102470.00;5012425;28;20183;-73
2022/06/17 05:18:39;;;;;;;9.50;7.23;;;;;;;14.22;77.79;102467.88;4996678;28;20210;-73
2022/06/17 05:21:18;;;;;;;9.60;7.60;;;;;;;14.34;77.73;102469.94;5012809;28;20195;-73
2022/06/17 05:23:44;;;;;;;9.53;7.73;;;;;;;14.44;76.86;102461.66;5012447;28;20269;-73
2022/06/17 05:26:10;;;;;;;7.90;7.10;;;;;;;14.52;75.97;102462.78;5012695;28;20273;-73
2022/06/17 05:28:35;;;;;;;8.97;6.93;;;;;;;14.67;75.14;102471.81;5012071;28;20237;-73
2022/06/17 05:31:02;;;;;;;8.23;7.23;;;;;;;14.75;74.64;102467.78;5012500;28;20225;-73
2022/06/17 05:33:37;;;;;;;11.23;7.23;;;;;;;14.88;74.68;102467.25;4996886;28;20272;-73
2022/06/17 05:36:03;;;;;;;8.60;7.70;;;;;;;15.07;73.49;102466.09;5012657;28;20190;-73
2022/06/17 05:38:30;;;;;;;9.40;7.47;;;;;;;15.16;73.25;102467.22;5011897;28;20190;-73
2022/06/17 05:40:57;;;;;;;10.53;7.87;;;;;;;15.31;72.82;102472.78;5012344;28;20343;-73
2022/06/17 05:43:23;;;;;;;8.60;7.67;;;;;;;15.37;73.59;102477.28;5030065;28;20672;-73
2022/06/17 05:45:48;;;;;;;9.53;7.53;;;;;;;15.54;73.51;102481.13;5011800;28;20182;-73
2022/06/17 05:48:26;;;;;;;12.40;8.40;;;;;;;15.69;73.24;102476.34;5012256;28;20182;-73
2022/06/17 05:51:14;;;;;;;9.93;7.33;;;;;;;15.88;72.46;102487.19;5011486;28;20242;-72
2022/06/17 05:53:46;;;;;;;10.43;8.00;;;;;;;16.12;71.48;102476.56;5030066;28;20286;-73
2022/06/17 05:56:24;;;;;;;8.47;6.90;;;;;;;16.31;70.87;102474.41;5011786;28;20321;-73
2022/06/17 05:58:50;;;;;;;10.47;7.43;;;;;;;16.38;71.25;102476.28;5012149;28;20218;-73
2022/06/17 06:01:16;;;;;;;10.00;7.33;;;;;;;16.49;70.55;102471.41;5011529;28;20202;-73
2022/06/17 06:03:41;;;;;;;7.50;6.70;;;;;;;16.65;69.35;102476.03;5012266;28;20186;-73
2022/06/17 06:06:07;;;;;;;7.80;6.80;;;;;;;16.75;69.59;102473.69;4995367;28;20178;-72
2022/06/17 06:08:33;;;;;;;9.03;7.00;;;;;;;16.83;67.59;102466.06;5011824;28;20178;-73
2022/06/17 06:10:59;;;;;;;9.80;6.77;;;;;;;16.78;67.42;102470.28;5012056;28;20209;-73
2022/06/17 06:13:27;;;;;;;10.57;7.03;;;;;;;17.02;66.93;102475.94;5011413;28;20234;-73
2022/06/17 06:15:57;;;;;;;9.60;6.60;;;;;;;17.20;67.08;102472.00;5011873;28;20186;-73
2022/06/17 06:18:29;;;;;;;9.20;6.10;;;;;;;17.36;66.66;102471.41;5011362;28;20182;-73
2022/06/17 06:20:56;;;;;;;8.33;6.40;;;;;;;17.51;65.44;102468.25;5012085;28;20217;-73
2022/06/17 06:23:24;;;;;;;10.07;6.03;;;;;;;17.62;65.19;102474.50;5011633;28;20186;-73
2022/06/17 06:25:50;;;;;;;11.67;6.40;;;;;;;17.53;64.65;102472.63;5012000;28;20182;-73
2022/06/17 06:28:19;;;;;;;9.10;5.27;;;;;;;17.73;63.94;102480.75;5011755;28;20296;-73
2022/06/17 06:30:51;;;;;;;9.47;6.13;;;;;;;17.86;64.00;102480.06;5011328;28;20691;-73
2022/06/17 06:33:17;;;;;;;6.87;5.37;;;;;;;18.03;62.70;102476.91;5011554;28;20186;-73
2022/06/17 06:35:42;;;;;;;7.60;5.07;;;;;;;18.07;62.64;102483.00;5011292;28;20197;-73
2022/06/17 06:38:08;;;;;;;10.60;5.50;;;;;;;18.16;61.91;102486.63;5011664;28;20189;-73
2022/06/17 06:40:35;;;;;;;7.73;5.60;;;;;;;18.07;62.21;102486.50;5011242;28;20252;-73
2022/06/17 06:43:01;;;;;;;5.83;4.40;;;;;;;18.39;62.31;102486.97;5029678;28;20210;-73
2022/06/17 06:45:48;;;;;;;7.00;4.90;;;;;;;18.67;60.67;102484.78;5029051;28;20300;-73
2022/06/17 06:48:16;;;;;;;7.40;5.00;;;;;;;18.87;59.86;102479.81;5011744;28;20190;-73
2022/06/17 06:50:44;;;;;;;6.53;4.53;;;;;;;18.72;59.41;102483.13;5011460;28;20216;-73
2022/06/17 06:53:10;;;;;;;5.90;4.93;;;;;;;18.69;59.83;102489.97;5011639;28;20198;-75
2022/06/17 06:55:37;;;;;;;7.50;4.70;;;;;;;18.97;59.09;102490.31;5010881;28;20717;-73
2022/06/17 06:58:08;;;;;;;8.33;4.90;;;;;;;19.30;57.83;102477.72;5009390;28;20179;-73
2022/06/17 07:00:41;;;;;;;8.97;4.60;;;;;;;19.25;58.46;102487.22;5010702;28;20233;-73
2022/06/17 07:03:07;;;;;;;7.67;4.43;;;;;;;19.59;58.10;102478.91;5009389;28;20193;-73
2022/06/17 07:05:37;;;;;;;6.03;4.07;;;;;;;19.79;56.93;102482.53;5014701;28;20748;-73
2022/06/17 07:08:03;;;;;;;8.33;4.30;;;;;;;19.97;56.84;102473.97;5014263;28;20201;-73
2022/06/17 07:10:33;;;;;;;10.63;4.33;;;;;;;19.99;55.66;102478.34;5032974;28;20206;-73
2022/06/17 07:12:59;;;;;;;8.63;3.90;;;;;;;20.22;55.05;102466.38;5032673;28;20595;-73
2022/06/17 07:15:25;;;;;;;8.30;3.80;;;;;;;20.46;54.26;102469.13;5032272;28;20260;-73
2022/06/17 07:17:54;;;;;;;4.63;3.30;;;;;;;20.69;55.15;102461.44;5032566;28;20201;-73
2022/06/17 07:20:20;;;;;;;6.30;3.30;;;;;;;20.66;51.89;102456.19;5032142;28;20210;-73
2022/06/17 07:22:46;;;;;;;6.20;3.83;;;;;;;20.49;53.02;102465.69;5014923;28;20195;-73
2022/06/17 07:25:11;;;;;;;5.10;3.13;;;;;;;20.86;52.35;102457.16;5032337;28;20179;-73
2022/06/17 07:27:37;;;;;;;7.33;3.50;;;;;;;20.82;51.78;102465.84;5032378;28;20191;-73
2022/06/17 07:30:03;;;;;;;7.93;3.13;;;;;;;21.13;52.01;102460.72;5031886;28;20281;-73
2022/06/17 07:32:28;;;;;;;5.60;3.20;;;;;;;21.27;50.36;102456.41;5032039;28;20193;-73
2022/06/17 07:34:53;;;;;;;4.27;2.73;;;;;;;21.34;49.77;102460.78;5032642;28;20271;-73
2022/06/17 07:40:04;;;;;;;4.73;3.37;;;;;;;21.28;49.58;102449.47;5032503;28;20714;-73
2022/06/17 07:42:39;;;;;;;6.83;3.80;;;;;;;21.58;49.55;102445.16;5031802;28;20186;-72
2022/06/17 07:45:17;;;;;;;7.50;3.30;;;;;;;21.66;47.85;102432.94;5032446;28;20174;-73
2022/06/17 07:47:44;;;;;;;4.73;3.10;;;;;;;21.92;48.88;102433.84;5031664;28;20191;-73
2022/06/17 07:50:16;;;;;;;7.37;3.20;;;;;;;22.18;48.23;102428.56;5032356;28;20202;-73
2022/06/17 07:52:41;;;;;;;4.83;2.93;;;;;;;22.27;46.65;102432.03;5031835;28;20278;-73
2022/06/17 07:55:08;;;;;;;5.30;2.90;;;;;;;22.42;45.84;102425.88;5014239;28;20812;-73
2022/06/17 07:57:33;;;;;;;4.50;2.70;;;;;;;22.64;45.87;102429.31;5032022;28;20212;-73
2022/06/17 07:59:59;;;;;;;5.10;2.97;;;;;;;22.93;45.73;102425.66;5031420;28;20178;-73
2022/06/17 08:02:24;;;;;;;5.73;3.20;;;;;;;22.65;45.53;102424.06;5031946;28;20738;-73
2022/06/17 08:04:50;;;;;;;4.67;2.83;;;;;;;22.74;46.21;102423.16;5031285;28;20194;-73
2022/06/17 08:07:15;;;;;;;4.63;2.23;;;;;;;22.93;44.90;102423.03;5031621;28;20186;-73
2022/06/17 08:09:41;;;;;;;3.40;2.40;;;;;;;23.11;44.39;102424.69;5030999;28;20190;-73
2022/06/17 08:12:11;;;;;;;6.07;3.00;;;;;;;23.18;43.57;102427.25;5013751;28;20218;-73
2022/06/17 08:14:43;;;;;;;7.00;3.80;;;;;;;22.86;44.19;102430.94;5031217;28;20587;-73
2022/06/17 08:17:14;;;;;;;3.87;2.77;;;;;;;23.30;43.56;102421.09;5030783;28;20186;-73
2022/06/17 08:19:41;;;;;;;6.40;2.87;;;;;;;23.58;42.56;102422.63;5031555;28;20285;-73
2022/06/17 08:22:07;;;;;;;6.13;2.83;;;;;;;23.74;43.56;102424.19;5031078;28;20210;-73
2022/06/17 08:24:33;;;;;;;6.43;2.80;;;;;;;23.84;43.30;102416.25;5031613;28;20186;-73
2022/06/17 08:26:58;;;;;;;4.07;2.50;;;;;;;23.91;42.35;102419.72;5030828;28;20209;-73
2022/06/17 08:29:26;;;;;;;3.13;2.40;;;;;;;24.12;41.25;102414.25;5031394;28;20281;-73
2022/06/17 08:31:52;;;;;;;5.70;2.23;;;;;;;24.38;42.08;102413.06;5031008;28;20210;-73
2022/06/17 08:34:18;;;;;;;3.33;2.13;;;;;;;24.52;40.95;102408.53;5030821;28;20285;-73
2022/06/17 08:36:44;;;;;;;6.40;2.33;;;;;;;24.60;40.99;102403.22;5031381;28;20190;-73
2022/06/17 08:39:12;;;;;;;4.95;2.20;;;;;;;24.71;41.16;102402.19;5012855;28;20245;-74
2022/06/17 08:42:04;;;;;;;7.90;2.25;;;;;;;24.97;40.83;102413.19;5031048;28;20210;-73
2022/06/17 08:44:51;;;;;;;5.03;2.25;;;;;;;24.99;39.53;102403.53;5030457;28;20194;-73
2022/06/17 08:47:30;;;;;;;5.95;2.50;;;;;;;24.68;38.63;102394.34;5031116;28;20187;-74
2022/06/17 08:50:08;;;;;;;3.80;2.85;;;;;;;24.50;40.28;102396.34;5030701;28;20182;-73
2022/06/17 08:52:59;;;;;;;3.50;2.35;;;;;;;25.43;39.53;102395.88;5031360;28;20207;-73
2022/06/17 08:56:01;;;;;;;3.65;2.05;;;;;;;25.31;38.70;102398.69;4999959;28;20230;-73
2022/06/17 08:58:36;;;;;;;3.67;2.20;;;;;;;25.75;38.11;102382.16;5028558;28;20225;-74
2022/06/17 09:01:23;;;;;;;4.05;2.20;;;;;;;25.87;37.76;102374.06;5030207;28;20974;-73
2022/06/17 09:04:27;;;;;;;3.60;2.00;;;;;;;26.12;38.20;102378.84;5031114;28;20564;-74
2022/06/17 09:07:08;;;;;;;5.13;2.03;;;;;;;25.30;37.92;102388.19;4989083;28;20226;-73
2022/06/17 09:09:43;;;;;;;8.00;2.17;;;;;;;25.45;39.58;102390.56;5012866;28;20193;-73
2022/06/17 09:12:33;;;;;;;3.22;1.98;;;;;;;25.60;38.43;102382.44;5030014;28;20209;-73
2022/06/17 09:15:13;;;;;;;6.22;2.10;;;;;;;25.71;39.22;102388.38;5030522;28;20187;-73
2022/06/17 09:17:59;;;;;;;4.53;2.15;;;;;;;25.85;38.88;102388.97;5029915;28;20178;-74
2022/06/17 09:20:33;;;;;;;3.85;2.45;;;;;;;25.77;39.38;102383.88;5030452;28;20296;-74
2022/06/17 09:23:02;;;;;;;4.68;2.65;;;;;;;25.83;38.87;102391.63;5029985;28;20653;-74
2022/06/17 09:25:43;;;;;;;5.18;2.78;;;;;;;26.06;38.22;102389.47;5012796;28;20182;-73
2022/06/17 09:28:20;;;;;;;3.42;2.00;;;;;;;26.10;37.92;102388.50;5009742;28;20175;-73
2022/06/17 09:30:54;;;;;;;5.65;2.33;;;;;;;26.02;38.62;102390.41;5013489;28;20561;-73
2022/06/17 09:33:45;;;;;;;4.72;2.20;;;;;;;26.07;38.71;102388.56;5030233;28;20844;-73
2022/06/17 09:36:22;;;;;;;4.00;2.00;;;;;;;26.16;38.62;102387.53;5029824;28;20252;-73
2022/06/17 09:39:00;;;;;;;5.22;2.80;;;;;;;25.99;38.68;102379.97;5029960;28;20175;-74
2022/06/17 09:41:35;;;;;;;5.63;2.63;;;;;;;26.58;37.78;102377.03;5016791;28;20214;-73
2022/06/17 09:44:06;;;;;;;4.05;2.40;;;;;;;26.75;38.41;102377.50;5012368;28;20550;-74
2022/06/17 09:46:40;;;;;;;4.38;2.40;;;;;;;26.11;37.67;102381.50;5029431;28;20186;-73
2022/06/17 09:49:20;;;;;;;3.97;2.72;;;;;;;25.56;39.52;102381.63;5029864;28;20276;-74
2022/06/17 09:51:49;;;;;;;5.63;2.85;;;;;;;26.85;39.36;102371.13;5029404;28;20202;-73
2022/06/17 09:54:35;;;;;;;3.60;2.55;;;;;;;27.21;37.35;102375.53;5029491;28;20210;-73
2022/06/17 09:57:05;;;;;;;5.90;2.80;;;;;;;26.94;35.92;102378.78;5029133;28;20236;-75
2022/06/17 09:59:48;;;;;;;4.15;2.47;;;;;;;26.81;37.77;102380.00;5029760;28;20260;-74
2022/06/17 10:02:35;;;;;;;4.40;2.75;;;;;;;27.07;37.64;102369.72;5029406;28;20178;-74
2022/06/17 10:05:12;;;;;;;5.38;2.97;;;;;;;27.47;37.84;102367.88;5029976;28;20675;-73
2022/06/17 10:07:50;;;;;;;3.13;2.47;;;;;;;27.47;38.02;102378.41;5028834;28;20277;-74
2022/06/17 10:10:31;;;;;;;4.03;2.88;;;;;;;27.32;37.28;102368.25;5027414;28;20757;-74
2022/06/17 10:13:14;;;;;;;5.35;2.80;;;;;;;27.59;37.28;102364.88;5029931;28;20178;-74
2022/06/17 10:19:21;;;;;;;6.70;3.15;;;;;;;26.84;37.87;102371.19;5008368;28;20552;-74
2022/06/17 10:21:58;;;;;;;3.10;2.13;;;;;;;27.29;37.76;102375.34;5010251;28;20237;-74
2022/06/17 10:24:30;;;;;;;4.45;2.25;;;;;;;27.52;37.62;102383.53;5008575;28;20258;-74
2022/06/17 10:27:03;;;;;;;3.60;2.72;;;;;;;27.52;37.10;102379.13;5011341;28;20248;-74
2022/06/17 10:29:43;;;;;;;4.88;2.75;;;;;;;27.44;37.43;102377.63;5029703;28;20581;-74
2022/06/17 10:32:09;;;;;;;3.85;2.53;;;;;;;27.91;36.87;102382.53;5011814;28;20785;-74
2022/06/17 10:34:58;;;;;;;7.97;3.33;;;;;;;27.26;37.04;102381.56;5012032;28;20218;-74
2022/06/17 10:37:26;;;;;;;5.43;2.95;;;;;;;26.89;37.88;102372.78;5029107;28;20193;-74
2022/06/17 10:39:53;;;;;;;5.70;3.65;;;;;;;26.89;37.24;102378.03;5033143;28;20182;-74
2022/06/17 10:42:20;;;;;;;6.40;3.25;;;;;;;26.82;38.70;102379.09;5033057;28;20269;-74
2022/06/17 10:44:49;;;;;;;4.25;2.83;;;;;;;27.49;37.16;102371.31;5033005;28;20190;-74
2022/06/17 10:47:21;;;;;;;5.75;3.28;;;;;;;27.54;37.72;102369.41;5033048;28;20182;-74
2022/06/17 10:50:02;;;;;;;4.88;3.03;;;;;;;27.54;37.65;102366.78;5033158;28;20209;-74
2022/06/17 10:52:37;;;;;;;4.88;3.05;;;;;;;27.58;37.55;102367.59;5032743;28;20209;-74
2022/06/17 10:55:03;;;;;;;7.18;3.20;;;;;;;27.32;37.88;102364.75;5032697;28;20221;-74
2022/06/17 10:57:33;;;;;;;6.07;3.45;;;;;;;27.61;36.33;102363.09;5033230;28;20198;-74
2022/06/17 10:59:58;;;;;;;7.68;3.22;;;;;;;27.27;37.04;102353.47;5032663;28;20186;-74
2022/06/17 11:02:31;;;;;;;5.85;2.83;;;;;;;27.15;38.32;102362.50;5033059;28;20640;-74
2022/06/17 11:04:59;;;;;;;6.30;3.45;;;;;;;27.61;36.93;102365.72;5032799;28;20191;-74
2022/06/17 11:07:39;;;;;;;4.60;3.13;;;;;;;27.73;36.47;102362.75;5033068;28;20195;-74
2022/06/17 11:10:13;;;;;;;5.93;3.08;;;;;;;27.47;37.43;102364.34;5032329;28;20269;-74
2022/06/17 11:12:43;;;;;;;6.35;3.50;;;;;;;27.23;37.16;102363.22;5032936;28;20193;-74
2022/06/17 11:15:34;;;;;;;4.88;2.88;;;;;;;27.24;38.10;102358.81;5032425;28;20213;-74
2022/06/17 11:18:09;;;;;;;4.95;2.95;;;;;;;27.17;37.77;102352.78;5023253;28;20256;-74
2022/06/17 11:20:37;;;;;;;5.28;3.53;;;;;;;27.00;37.36;102352.38;5032435;28;20213;-74
2022/06/17 11:23:18;;;;;;;6.43;3.58;;;;;;;26.60;37.51;102353.31;5032955;28;20273;-74
2022/06/17 11:25:44;;;;;;;4.35;3.20;;;;;;;26.59;39.20;102346.31;5032363;28;20738;-74
2022/06/17 11:28:11;;;;;;;4.00;2.92;;;;;;;26.87;38.14;102342.16;5032364;28;20175;-74
2022/06/17 11:30:51;;;;;;;5.57;3.00;;;;;;;26.96;38.94;102331.41;5014992;28;20202;-74
2022/06/17 11:33:55;;;;;;;4.38;3.10;;;;;;;26.83;38.49;102333.47;5031934;28;20269;-74
2022/06/17 11:36:32;;;;;;;4.15;2.88;;;;;;;27.02;38.69;102342.66;5029787;28;20264;-74
2022/06/17 11:39:22;;;;;;;3.65;3.10;;;;;;;26.99;38.38;102333.97;5031905;28;20304;-74
2022/06/17 11:41:48;;;;;;;5.55;3.15;;;;;;;26.88;38.78;102334.22;5032436;28;20229;-74
2022/06/17 11:44:20;;;;;;;5.43;2.90;;;;;;;26.89;38.70;102338.59;5031947;28;20652;-74
2022/06/17 11:46:54;;;;;;;4.57;3.05;;;;;;;26.91;38.43;102335.94;5032355;28;20179;-74
2022/06/17 11:49:20;;;;;;;5.55;3.25;;;;;;;26.91;39.23;102336.81;5031103;28;20587;-74
2022/06/17 11:52:00;;;;;;;6.57;3.13;;;;;;;26.75;39.23;102337.22;5032160;28;20715;-74
2022/06/17 11:54:33;;;;;;;7.53;3.30;;;;;;;26.60;38.85;102345.41;5013647;28;20679;-74
2022/06/17 11:57:13;;;;;;;5.05;2.92;;;;;;;26.40;38.44;102335.34;5032111;28;20248;-74